createdAt,value
2023-04-10T00:02:24.819Z,8.02
2023-04-10T00:04:52.253Z,7.32
2023-04-10T00:07:19.375Z,7.93
2023-04-10T00:09:46.400Z,7.53
2023-04-10T00:12:14.475Z,8.15
2023-04-10T00:14:41.760Z,7.70
2023-04-10T00:17:08.829Z,7.03
2023-04-10T00:19:36.098Z,7.05
2023-04-10T00:22:03.365Z,7.78
2023-04-10T00:24:30.633Z,8.57
2023-04-10T00:26:57.684Z,7.55
2023-04-10T00:29:25.254Z,7.60
2023-04-10T00:31:52.459Z,7.70
2023-04-10T00:34:19.652Z,7.03
2023-04-10T00:36:47.447Z,8.00
2023-04-10T00:39:14.667Z,7.72
2023-04-10T00:41:41.723Z,7.70
2023-04-10T00:44:08.862Z,8.75
2023-04-10T00:46:37.757Z,8.20
2023-04-10T00:49:09.533Z,7.72
2023-04-10T00:51:37.561Z,8.57
2023-04-10T00:54:04.755Z,7.25
2023-04-10T00:56:32.318Z,7.93
2023-04-10T00:58:59.709Z,8.00
2023-04-10T01:01:26.849Z,6.45
2023-04-10T01:03:55.007Z,8.57
2023-04-10T01:06:28.706Z,7.75
2023-04-10T01:09:18.272Z,7.18
2023-04-10T01:11:46.408Z,8.18
2023-04-10T01:14:19.557Z,8.18
2023-04-10T01:16:49.913Z,7.70
2023-04-10T01:19:35.284Z,8.40
2023-04-10T01:22:03.168Z,9.18
2023-04-10T01:24:51.311Z,8.23
2023-04-10T01:27:21.479Z,8.68
2023-04-10T01:29:50.047Z,8.48
2023-04-10T01:32:19.873Z,8.20
2023-04-10T01:34:49.706Z,8.05
2023-04-10T01:37:17.810Z,8.43
2023-04-10T01:39:47.960Z,7.95
2023-04-10T01:42:15.549Z,7.68
2023-04-10T01:44:44.004Z,8.32
2023-04-10T01:47:11.173Z,7.05
2023-04-10T01:49:44.308Z,7.60
2023-04-10T01:52:12.503Z,7.30
2023-04-10T01:54:39.720Z,7.80
2023-04-10T01:57:06.882Z,8.18
2023-04-10T01:59:33.927Z,7.60
2023-04-10T02:02:01.624Z,6.78
2023-04-10T02:04:28.857Z,7.70
2023-04-10T02:07:08.196Z,7.00
2023-04-10T02:09:46.163Z,7.57
2023-04-10T02:12:36.793Z,7.25
2023-04-10T02:15:06.393Z,8.10
2023-04-10T02:17:34.144Z,7.20
2023-04-10T02:20:01.466Z,8.05
2023-04-10T02:22:29.049Z,8.68
2023-04-10T02:24:57.441Z,7.68
2023-04-10T02:27:29.003Z,7.05
2023-04-10T02:29:56.728Z,9.20
2023-04-10T02:32:24.271Z,8.63
2023-04-10T02:34:51.391Z,7.45
2023-04-10T02:37:18.565Z,8.38
2023-04-10T02:39:45.973Z,7.20
2023-04-10T02:42:13.065Z,8.05
2023-04-10T02:44:40.236Z,7.90
2023-04-10T02:47:07.463Z,8.38
2023-04-10T02:49:35.114Z,8.85
2023-04-10T02:52:02.404Z,7.57
2023-04-10T02:54:29.690Z,6.95
2023-04-10T02:57:01.303Z,7.18
2023-04-10T02:59:28.366Z,7.15
2023-04-10T03:01:55.492Z,8.40
2023-04-10T03:04:22.679Z,7.80
2023-04-10T03:06:49.735Z,7.70
2023-04-10T03:09:16.977Z,7.60
2023-04-10T03:11:44.042Z,8.27
2023-04-10T03:14:11.071Z,7.88
2023-04-10T03:16:38.273Z,7.97
2023-04-10T03:19:05.478Z,7.10
2023-04-10T03:21:32.871Z,7.40
2023-04-10T03:23:59.911Z,8.15
2023-04-10T03:26:27.775Z,8.35
2023-04-10T03:28:54.829Z,7.55
2023-04-10T03:31:21.961Z,8.55
2023-04-10T03:33:49.084Z,7.78
2023-04-10T03:36:16.834Z,7.43
2023-04-10T03:38:43.945Z,8.07
2023-04-10T03:41:11.147Z,6.85
2023-04-10T03:43:38.172Z,8.27
2023-04-10T03:46:05.663Z,7.18
2023-04-10T03:48:33.434Z,7.72
2023-04-10T03:51:00.474Z,8.20
2023-04-10T03:53:27.528Z,8.40
2023-04-10T03:55:54.645Z,7.85
2023-04-10T03:58:21.725Z,8.15
2023-04-10T04:00:48.803Z,7.75
2023-04-10T04:03:16.657Z,8.55
2023-04-10T04:05:43.992Z,8.48
2023-04-10T04:08:11.125Z,8.15
2023-04-10T04:10:38.114Z,8.20
2023-04-10T04:13:05.334Z,8.45
2023-04-10T04:15:32.345Z,7.43
2023-04-10T04:18:00.729Z,6.90
2023-04-10T04:20:27.878Z,7.03
2023-04-10T04:22:55.044Z,7.53
2023-04-10T04:25:22.193Z,9.60
2023-04-10T04:27:49.211Z,8.27
2023-04-10T04:30:16.307Z,8.90
2023-04-10T04:32:43.410Z,9.38
2023-04-10T04:35:10.718Z,7.38
2023-04-10T04:37:37.882Z,7.68
2023-04-10T04:40:05.262Z,7.82
2023-04-10T04:42:32.578Z,7.28
2023-04-10T04:45:00.767Z,7.50
2023-04-10T04:47:27.864Z,7.88
2023-04-10T04:49:54.976Z,7.45
2023-04-10T04:52:22.043Z,8.05
2023-04-10T04:54:49.092Z,8.02
2023-04-10T04:57:16.163Z,8.15
2023-04-10T04:59:43.279Z,7.65
2023-04-10T05:02:16.706Z,8.20
2023-04-10T05:04:43.918Z,7.80
2023-04-10T05:07:11.198Z,8.30
2023-04-10T05:09:38.203Z,7.47
2023-04-10T05:12:05.389Z,8.80
2023-04-10T05:14:32.413Z,8.23
2023-04-10T05:17:01.101Z,7.97
2023-04-10T05:19:30.177Z,7.35
2023-04-10T05:21:57.420Z,6.57
2023-04-10T05:24:24.482Z,7.65
2023-04-10T05:26:51.861Z,6.15
2023-04-10T05:29:18.874Z,7.25
2023-04-10T05:31:46.135Z,8.35
2023-04-10T05:34:13.195Z,7.60
2023-04-10T05:36:40.228Z,8.10
2023-04-10T05:39:07.239Z,6.70
2023-04-10T05:41:34.241Z,7.40
2023-04-10T05:44:01.313Z,7.30
2023-04-10T05:46:28.374Z,6.82
2023-04-10T05:48:55.705Z,7.35
2023-04-10T05:51:22.932Z,7.55
2023-04-10T05:53:51.038Z,7.38
2023-04-10T05:56:18.091Z,8.02
2023-04-10T05:58:45.144Z,7.38
2023-04-10T06:01:13.500Z,6.88
2023-04-10T06:03:40.710Z,7.53
2023-04-10T06:06:08.397Z,8.05
2023-04-10T06:08:35.635Z,8.38
2023-04-10T06:11:02.689Z,9.30
2023-04-10T06:13:29.745Z,11.52
2023-04-10T06:15:56.840Z,9.05
2023-04-10T06:18:24.035Z,9.30
2023-04-10T06:20:51.071Z,7.97
2023-04-10T06:23:18.094Z,8.57
2023-04-10T06:25:45.137Z,10.88
2023-04-10T06:28:12.264Z,8.77
2023-04-10T06:30:39.308Z,8.83
2023-04-10T06:33:06.446Z,8.73
2023-04-10T06:35:33.559Z,8.93
2023-04-10T06:38:00.689Z,8.90
2023-04-10T06:40:29.463Z,7.77
2023-04-10T06:42:56.525Z,9.90
2023-04-10T06:45:23.576Z,8.87
2023-04-10T06:47:50.795Z,9.33
2023-04-10T06:50:17.934Z,9.10
2023-04-10T06:52:48.646Z,8.70
2023-04-10T06:55:15.893Z,8.10
2023-04-10T06:57:43.462Z,8.60
2023-04-10T07:00:10.885Z,8.60
2023-04-10T07:02:38.033Z,8.67
2023-04-10T07:05:05.494Z,8.03
2023-04-10T07:07:32.966Z,7.67
2023-04-10T07:10:00.111Z,7.43
2023-04-10T07:12:27.180Z,7.17
2023-04-10T07:14:54.459Z,7.30
2023-04-10T07:17:21.974Z,7.33
2023-04-10T07:19:49.066Z,6.80
2023-04-10T07:22:16.296Z,8.17
2023-04-10T07:24:44.133Z,7.20
2023-04-10T07:27:12.823Z,6.40
2023-04-10T07:29:39.485Z,6.20
2023-04-10T07:32:06.725Z,7.17
2023-04-10T07:34:33.543Z,6.53
2023-04-10T07:37:00.265Z,6.40
2023-04-10T07:39:27.465Z,6.63
2023-04-10T07:41:55.104Z,6.10
2023-04-10T07:44:21.940Z,6.17
2023-04-10T07:46:48.978Z,6.17
2023-04-10T07:49:15.662Z,6.60
2023-04-10T07:51:42.342Z,5.10
2023-04-10T07:54:08.941Z,5.70
2023-04-10T07:56:35.799Z,6.07
2023-04-10T07:59:03.236Z,5.87
2023-04-10T08:01:29.862Z,5.63
2023-04-10T08:03:56.729Z,5.10
2023-04-10T08:06:26.655Z,5.00
2023-04-10T08:08:53.565Z,6.10
2023-04-10T08:11:29.161Z,6.30
2023-04-10T08:13:58.303Z,5.90
2023-04-10T08:16:26.235Z,4.93
2023-04-10T08:18:54.407Z,6.07
2023-04-10T08:21:22.353Z,5.47
2023-04-10T08:23:53.280Z,5.47
2023-04-10T08:26:21.431Z,5.20
2023-04-10T08:28:53.192Z,5.03
2023-04-10T08:31:21.791Z,5.30
2023-04-10T08:33:48.875Z,5.43
2023-04-10T08:36:19.005Z,4.73
2023-04-10T08:38:47.208Z,5.33
2023-04-10T08:41:15.308Z,5.27
2023-04-10T08:43:43.463Z,4.97
2023-04-10T08:46:13.207Z,5.27
2023-04-10T08:49:12.828Z,4.80
2023-04-10T08:52:06.340Z,4.83
2023-04-10T08:54:33.950Z,5.13
2023-04-10T08:57:01.690Z,5.00
2023-04-10T08:59:30.852Z,5.20
2023-04-10T09:01:58.278Z,5.00
2023-04-10T09:04:26.015Z,4.53
2023-04-10T09:06:56.078Z,5.20
2023-04-10T09:09:23.126Z,4.50
2023-04-10T09:11:55.112Z,4.17
2023-04-10T09:14:22.822Z,4.93
2023-04-10T09:16:50.205Z,5.20
2023-04-10T09:19:30.548Z,5.47
2023-04-10T09:21:57.716Z,4.37
2023-04-10T09:24:25.323Z,5.20
2023-04-10T09:26:52.580Z,4.77
2023-04-10T09:29:19.947Z,4.40
2023-04-10T09:31:48.215Z,4.70
2023-04-10T09:34:19.592Z,4.70
2023-04-10T09:36:57.305Z,5.27
2023-04-10T09:39:42.946Z,4.00
2023-04-10T09:42:11.504Z,4.60
2023-04-10T09:44:39.253Z,4.80
2023-04-10T09:47:15.637Z,4.00
2023-04-10T09:49:50.373Z,4.10
2023-04-10T09:52:24.742Z,4.70
2023-04-10T09:54:52.151Z,4.60
2023-04-10T09:57:20.038Z,4.50
2023-04-10T09:59:51.378Z,4.00
2023-04-10T10:02:22.446Z,4.20
2023-04-10T10:04:50.346Z,3.60
2023-04-10T10:07:18.129Z,3.30
2023-04-10T10:09:46.314Z,3.47
2023-04-10T10:12:16.758Z,3.80
2023-04-10T10:15:07.209Z,3.73
2023-04-10T10:17:40.314Z,3.47
2023-04-10T10:20:11.228Z,3.60
2023-04-10T10:22:38.783Z,3.37
2023-04-10T10:25:06.008Z,3.47
2023-04-10T10:27:35.445Z,3.43
2023-04-10T10:30:11.880Z,3.07
2023-04-10T10:32:40.506Z,2.90
2023-04-10T10:35:08.415Z,2.90
2023-04-10T10:37:35.774Z,2.60
2023-04-10T10:40:41.880Z,3.07
2023-04-10T10:43:24.219Z,3.00
2023-04-10T10:45:57.174Z,3.30
2023-04-10T10:48:23.873Z,2.40
2023-04-10T10:50:52.178Z,2.43
2023-04-10T10:53:44.383Z,3.07
2023-04-10T10:56:20.754Z,2.50
2023-04-10T10:58:48.911Z,2.70
2023-04-10T11:01:16.602Z,2.90
2023-04-10T11:03:46.451Z,3.03
2023-04-10T11:06:19.471Z,2.37
2023-04-10T11:08:53.022Z,2.50
2023-04-10T11:11:24.956Z,2.60
2023-04-10T11:13:57.545Z,2.80
2023-04-10T11:16:31.453Z,2.83
2023-04-10T11:19:12.974Z,3.23
2023-04-10T11:22:15.650Z,2.50
2023-04-10T11:24:58.966Z,2.50
2023-04-10T11:27:39.277Z,2.70
2023-04-10T11:30:25.613Z,2.97
2023-04-10T11:32:52.348Z,2.70
2023-04-10T11:35:20.081Z,3.53
2023-04-10T11:37:47.112Z,2.80
2023-04-10T11:40:14.897Z,3.23
2023-04-10T11:42:41.522Z,2.70
2023-04-10T11:45:27.760Z,2.70
2023-04-10T11:47:55.222Z,2.93
2023-04-10T11:50:22.061Z,2.77
2023-04-10T11:52:51.007Z,2.50
2023-04-10T11:55:18.003Z,2.67
2023-04-10T11:57:45.978Z,2.43
2023-04-10T12:00:22.602Z,2.43
2023-04-10T12:02:52.551Z,2.70
2023-04-10T12:05:19.953Z,2.40
2023-04-10T12:07:48.338Z,2.30
2023-04-10T12:10:15.268Z,2.50
2023-04-10T12:12:42.109Z,2.50
2023-04-10T12:15:28.500Z,2.57
2023-04-10T12:17:56.348Z,2.83
2023-04-10T12:20:26.508Z,2.43
2023-04-10T12:22:56.301Z,2.70
2023-04-10T12:25:23.040Z,2.13
2023-04-10T12:27:51.630Z,2.20
2023-04-10T12:30:18.366Z,2.37
2023-04-10T12:32:51.895Z,2.20
2023-04-10T12:35:18.596Z,2.57
2023-04-10T12:37:49.313Z,2.70
2023-04-10T12:40:16.285Z,2.30
2023-04-10T12:42:43.090Z,2.63
2023-04-10T12:45:13.439Z,2.70
2023-04-10T12:47:48.484Z,2.57
2023-04-10T12:50:20.850Z,2.77
2023-04-10T12:53:02.837Z,3.00
2023-04-10T12:55:29.618Z,3.10
2023-04-10T12:57:56.968Z,2.63
2023-04-10T13:00:24.377Z,3.00
2023-04-10T13:02:51.668Z,3.27
2023-04-10T13:05:18.989Z,3.07
2023-04-10T13:07:46.166Z,3.10
2023-04-10T13:10:13.253Z,3.20
2023-04-10T13:12:41.960Z,3.53
2023-04-10T13:15:10.799Z,3.03
2023-04-10T13:17:37.960Z,3.10
2023-04-10T13:20:05.442Z,3.23
2023-04-10T13:22:32.457Z,3.67
2023-04-10T13:24:59.575Z,3.43
2023-04-10T13:27:26.582Z,3.60
2023-04-10T13:29:53.640Z,3.53
2023-04-10T13:32:21.111Z,3.67
2023-04-10T13:34:48.121Z,3.40
2023-04-10T13:37:15.303Z,3.37
2023-04-10T13:39:43.450Z,3.07
2023-04-10T13:42:10.516Z,4.33
2023-04-10T13:44:37.636Z,3.30
2023-04-10T13:47:06.267Z,3.67
2023-04-10T13:49:33.421Z,2.90
2023-04-10T13:52:00.495Z,3.60
2023-04-10T13:54:28.208Z,3.30
2023-04-10T13:56:56.001Z,3.17
2023-04-10T13:59:23.064Z,2.97
2023-04-10T14:01:52.418Z,3.30
2023-04-10T14:04:19.840Z,3.00
2023-04-10T14:06:47.076Z,3.03
2023-04-10T14:09:14.186Z,3.63
2023-04-10T14:11:41.285Z,2.83
2023-04-10T14:14:08.488Z,3.37
2023-04-10T14:16:35.764Z,2.50
2023-04-10T14:19:02.978Z,3.10
2023-04-10T14:21:29.984Z,2.90
2023-04-10T14:23:57.052Z,2.73
2023-04-10T14:26:24.100Z,3.13
2023-04-10T14:28:51.245Z,2.90
2023-04-10T14:31:18.390Z,3.00
2023-04-10T14:33:45.524Z,2.87
2023-04-10T14:36:12.689Z,2.80
2023-04-10T14:38:39.875Z,2.77
2023-04-10T14:41:07.174Z,3.80
2023-04-10T14:43:34.461Z,2.70
2023-04-10T14:46:01.629Z,2.60
2023-04-10T14:48:28.879Z,3.13
2023-04-10T14:50:58.870Z,2.70
2023-04-10T14:53:25.916Z,2.80
2023-04-10T14:55:52.913Z,2.60
2023-04-10T14:58:19.940Z,2.47
2023-04-10T15:00:47.484Z,3.00
2023-04-10T15:03:15.990Z,3.00
2023-04-10T15:05:43.066Z,2.67
2023-04-10T15:08:10.118Z,2.77
2023-04-10T15:10:37.131Z,2.30
2023-04-10T15:13:05.131Z,2.60
2023-04-10T15:15:32.160Z,3.43
2023-04-10T15:17:59.217Z,2.93
2023-04-10T15:20:26.328Z,2.27
2023-04-10T15:22:53.663Z,2.60
2023-04-10T15:25:20.817Z,3.33
2023-04-10T15:27:47.824Z,2.90
2023-04-10T15:30:14.932Z,2.60
2023-04-10T15:32:42.010Z,2.30
2023-04-10T15:35:09.117Z,2.80
2023-04-10T15:37:36.802Z,2.83
2023-04-10T15:40:07.445Z,2.33
2023-04-10T15:42:35.104Z,2.30
2023-04-10T15:45:02.255Z,2.60
2023-04-10T15:47:29.453Z,2.50
2023-04-10T15:49:59.623Z,2.20
2023-04-10T15:52:29.134Z,1.97
2023-04-10T15:54:56.280Z,2.30
2023-04-10T15:57:23.366Z,2.50
2023-04-10T15:59:53.837Z,2.83
2023-04-10T16:02:20.985Z,2.20
2023-04-10T16:04:48.160Z,1.87
2023-04-10T16:07:15.475Z,1.87
2023-04-10T16:09:42.498Z,1.97
2023-04-10T16:12:09.574Z,2.47
2023-04-10T16:14:36.603Z,1.90
2023-04-10T16:17:03.644Z,1.73
2023-04-10T16:19:31.552Z,1.70
2023-04-10T16:21:58.844Z,1.77
2023-04-10T16:24:26.573Z,1.90
2023-04-10T16:26:54.100Z,1.90
2023-04-10T16:29:21.169Z,1.80
2023-04-10T16:31:48.287Z,1.97
2023-04-10T16:34:15.482Z,1.97
2023-04-10T16:36:42.609Z,2.03
2023-04-10T16:39:09.737Z,2.00
2023-04-10T16:41:36.933Z,2.23
2023-04-10T16:44:03.999Z,2.10
2023-04-10T16:46:32.953Z,2.30
2023-04-10T16:49:01.444Z,2.40
2023-04-10T16:51:28.554Z,2.00
2023-04-10T16:53:55.719Z,4.43
2023-04-10T16:56:22.768Z,2.07
2023-04-10T16:58:49.919Z,2.90
2023-04-10T17:01:18.429Z,2.00
2023-04-10T17:03:47.354Z,2.03
2023-04-10T17:06:15.825Z,2.50
2023-04-10T17:08:42.946Z,2.10
2023-04-10T17:11:10.249Z,2.13
2023-04-10T17:13:37.427Z,2.33
2023-04-10T17:16:08.232Z,2.10
2023-04-10T17:18:35.282Z,2.60
2023-04-10T17:21:02.311Z,2.00
2023-04-10T17:23:29.762Z,2.37
2023-04-10T17:25:56.815Z,2.67
2023-04-10T17:28:23.946Z,2.50
2023-04-10T17:30:51.007Z,2.30
2023-04-10T17:33:18.040Z,2.30
2023-04-10T17:35:45.228Z,2.20
2023-04-10T17:38:12.402Z,2.60
2023-04-10T17:40:40.919Z,2.07
2023-04-10T17:43:08.089Z,2.50
2023-04-10T17:45:38.564Z,2.10
2023-04-10T17:48:05.896Z,2.23
2023-04-10T17:50:33.474Z,2.27
2023-04-10T17:53:00.894Z,2.33
2023-04-10T17:55:28.021Z,2.00
2023-04-10T17:57:57.412Z,2.60
2023-04-10T18:00:24.601Z,2.00
2023-04-10T18:02:57.804Z,2.10
2023-04-10T18:05:25.127Z,2.07
2023-04-10T18:07:52.159Z,2.20
2023-04-10T18:10:19.393Z,2.03
2023-04-10T18:12:46.525Z,1.90
2023-04-10T18:15:15.067Z,2.00
2023-04-10T18:17:42.148Z,1.80
2023-04-10T18:20:09.368Z,1.80
2023-04-10T18:22:36.389Z,1.70
2023-04-10T18:25:03.648Z,2.23
2023-04-10T18:27:31.736Z,1.90
2023-04-10T18:29:58.935Z,1.80
2023-04-10T18:32:26.034Z,2.00
2023-04-10T18:34:53.156Z,2.00
2023-04-10T18:37:20.222Z,1.90
2023-04-10T18:39:47.441Z,1.87
2023-04-10T18:42:14.466Z,1.97
2023-04-10T18:44:41.509Z,1.83
2023-04-10T18:47:10.928Z,2.03
2023-04-10T18:49:38.158Z,2.27
2023-04-10T18:52:05.335Z,2.10
2023-04-10T18:54:32.390Z,2.10
2023-04-10T18:57:00.917Z,2.20
2023-04-10T18:59:29.062Z,3.00
2023-04-10T19:01:57.286Z,2.60
2023-04-10T19:04:24.760Z,2.20
2023-04-10T19:06:51.967Z,2.10
2023-04-10T19:09:19.088Z,2.73
2023-04-10T19:11:46.300Z,2.07
2023-04-10T19:14:13.340Z,2.37
2023-04-10T19:16:40.371Z,2.77
2023-04-10T19:19:07.382Z,2.10
2023-04-10T19:21:34.482Z,2.00
2023-04-10T19:24:01.597Z,2.13
2023-04-10T19:26:28.654Z,2.13
2023-04-10T19:28:55.919Z,2.50
2023-04-10T19:31:23.907Z,2.33
2023-04-10T19:33:51.126Z,1.77
2023-04-10T19:36:19.017Z,2.10
2023-04-10T19:38:48.955Z,2.20
2023-04-10T19:41:16.413Z,2.30
2023-04-10T19:43:43.798Z,2.23
2023-04-10T19:46:18.085Z,2.30
2023-04-10T19:48:45.463Z,2.27
2023-04-10T19:51:13.124Z,1.90
2023-04-10T19:53:40.234Z,2.50
2023-04-10T19:56:07.459Z,2.13
2023-04-10T19:58:39.903Z,2.57
2023-04-10T20:01:08.852Z,2.23
2023-04-10T20:03:37.097Z,2.30
2023-04-10T20:06:07.125Z,2.90
2023-04-10T20:08:34.157Z,2.30
2023-04-10T20:11:01.883Z,2.20
2023-04-10T20:13:28.877Z,3.10
2023-04-10T20:15:55.968Z,2.23
2023-04-10T20:18:23.020Z,2.40
2023-04-10T20:20:50.202Z,2.40
2023-04-10T20:23:17.202Z,2.23
2023-04-10T20:25:44.270Z,2.40
2023-04-10T20:28:11.317Z,2.40
2023-04-10T20:30:39.399Z,3.20
2023-04-10T20:33:06.501Z,2.60
2023-04-10T20:35:33.593Z,2.20
2023-04-10T20:38:00.754Z,2.57
2023-04-10T20:40:27.884Z,2.50
2023-04-10T20:42:54.933Z,3.90
2023-04-10T20:45:22.038Z,2.90
2023-04-10T20:47:49.203Z,2.47
2023-04-10T20:50:16.415Z,3.40
2023-04-10T20:52:43.490Z,3.23
2023-04-10T20:55:10.930Z,3.00
2023-04-10T20:57:37.932Z,3.37
2023-04-10T21:00:05.189Z,2.87
2023-04-10T21:02:32.365Z,3.23
2023-04-10T21:04:59.605Z,3.10
2023-04-10T21:07:26.756Z,4.13
2023-04-10T21:09:53.848Z,3.80
2023-04-10T21:12:20.892Z,3.73
2023-04-10T21:14:48.146Z,3.60
2023-04-10T21:17:15.869Z,3.53
2023-04-10T21:19:42.962Z,3.70
2023-04-10T21:22:12.974Z,3.70
2023-04-10T21:24:40.070Z,3.90
2023-04-10T21:27:08.028Z,4.33
2023-04-10T21:29:35.115Z,3.33
2023-04-10T21:32:02.200Z,3.60
2023-04-10T21:34:30.336Z,3.90
2023-04-10T21:36:57.360Z,3.30
2023-04-10T21:39:24.382Z,1.60
2023-04-10T21:41:51.437Z,1.67
2023-04-10T21:44:18.471Z,2.00
2023-04-10T21:46:45.514Z,1.63
2023-04-10T21:49:12.564Z,1.40
2023-04-10T21:51:42.871Z,1.30
2023-04-10T21:54:09.916Z,1.00
2023-04-10T21:56:38.666Z,1.50
2023-04-10T21:59:05.752Z,1.50
2023-04-10T22:01:33.893Z,1.90
2023-04-10T22:04:01.051Z,1.43
2023-04-10T22:06:28.211Z,1.30
2023-04-10T22:08:55.533Z,1.40
2023-04-10T22:11:22.740Z,1.10
2023-04-10T22:13:49.869Z,1.37
2023-04-10T22:16:16.889Z,1.60
2023-04-10T22:18:51.097Z,1.27
2023-04-10T22:21:18.155Z,1.43
2023-04-10T22:23:45.205Z,1.10
2023-04-10T22:26:12.228Z,2.00
2023-04-10T22:28:39.275Z,2.30
2023-04-10T22:31:06.380Z,0.97
2023-04-10T22:33:33.561Z,1.30
2023-04-10T22:36:00.638Z,1.40
2023-04-10T22:38:27.672Z,1.53
2023-04-10T22:40:55.786Z,1.37
2023-04-10T22:43:22.880Z,1.10
2023-04-10T22:45:50.124Z,1.27
2023-04-10T22:48:17.202Z,1.30
2023-04-10T22:50:44.293Z,1.33
2023-04-10T22:53:11.776Z,1.23
2023-04-10T22:55:39.250Z,1.20
2023-04-10T22:58:06.574Z,1.33
2023-04-10T23:00:34.445Z,1.50
2023-04-10T23:03:01.727Z,1.40
2023-04-10T23:05:29.084Z,1.23
2023-04-10T23:07:56.362Z,1.50
2023-04-10T23:10:23.408Z,1.03
2023-04-10T23:12:50.430Z,1.37
2023-04-10T23:15:17.538Z,1.50
2023-04-10T23:17:44.687Z,1.17
2023-04-10T23:20:12.026Z,1.07
2023-04-10T23:22:39.049Z,1.43
2023-04-10T23:25:06.289Z,1.30
2023-04-10T23:27:33.292Z,1.10
2023-04-10T23:30:01.907Z,1.40
2023-04-10T23:32:29.026Z,1.20
2023-04-10T23:34:56.074Z,2.17
2023-04-10T23:37:23.134Z,1.40
2023-04-10T23:39:50.252Z,1.03
2023-04-10T23:42:17.389Z,1.13
2023-04-10T23:44:44.413Z,1.10
2023-04-10T23:47:11.424Z,1.90
2023-04-10T23:49:38.499Z,1.03
2023-04-10T23:52:05.530Z,1.50
2023-04-10T23:54:32.593Z,1.33
2023-04-10T23:56:59.802Z,1.17
2023-04-10T23:59:26.923Z,1.20
